sensor_id;sensor_type;location;lat;lon;timestamp;temperature;humidity
68648;SHT31;55632;51.962;16.116;2023-12-20T00:03:31;6.97;93.46
68648;SHT31;55632;51.962;16.116;2023-12-20T00:08:32;6.93;93.52
68648;SHT31;55632;51.962;16.116;2023-12-20T00:13:32;6.94;93.47
68648;SHT31;55632;51.962;16.116;2023-12-20T00:18:33;6.93;93.46
68648;SHT31;55632;51.962;16.116;2023-12-20T00:23:34;6.91;93.44
68648;SHT31;55632;51.962;16.116;2023-12-20T00:28:35;6.90;93.51
68648;SHT31;55632;51.962;16.116;2023-12-20T00:33:35;6.88;93.43
68648;SHT31;55632;51.962;16.116;2023-12-20T00:38:36;6.84;93.53
68648;SHT31;55632;51.962;16.116;2023-12-20T00:43:37;6.86;93.53
68648;SHT31;55632;51.962;16.116;2023-12-20T00:48:41;6.83;93.55
68648;SHT31;55632;51.962;16.116;2023-12-20T00:53:42;6.83;93.56
68648;SHT31;55632;51.962;16.116;2023-12-20T00:58:43;6.83;93.59
68648;SHT31;55632;51.962;16.116;2023-12-20T01:03:44;6.83;93.66
68648;SHT31;55632;51.962;16.116;2023-12-20T01:08:45;6.84;93.58
68648;SHT31;55632;51.962;16.116;2023-12-20T01:13:46;6.80;93.61
68648;SHT31;55632;51.962;16.116;2023-12-20T01:18:46;6.80;93.63
68648;SHT31;55632;51.962;16.116;2023-12-20T01:23:47;6.79;93.62
68648;SHT31;55632;51.962;16.116;2023-12-20T01:28:48;6.79;93.62
68648;SHT31;55632;51.962;16.116;2023-12-20T01:33:48;6.77;93.58
68648;SHT31;55632;51.962;16.116;2023-12-20T01:38:49;6.75;93.69
68648;SHT31;55632;51.962;16.116;2023-12-20T01:43:50;6.73;93.72
68648;SHT31;55632;51.962;16.116;2023-12-20T01:48:51;6.75;93.72
68648;SHT31;55632;51.962;16.116;2023-12-20T01:53:55;6.72;93.69
68648;SHT31;55632;51.962;16.116;2023-12-20T01:58:56;6.70;93.69
68648;SHT31;55632;51.962;16.116;2023-12-20T02:03:58;6.69;93.70
68648;SHT31;55632;51.962;16.116;2023-12-20T02:08:59;6.70;93.75
68648;SHT31;55632;51.962;16.116;2023-12-20T02:14:00;6.69;93.70
68648;SHT31;55632;51.962;16.116;2023-12-20T02:19:04;6.66;93.80
68648;SHT31;55632;51.962;16.116;2023-12-20T02:24:08;6.66;93.81
68648;SHT31;55632;51.962;16.116;2023-12-20T02:29:08;6.66;93.81
68648;SHT31;55632;51.962;16.116;2023-12-20T02:34:09;6.66;93.81
68648;SHT31;55632;51.962;16.116;2023-12-20T02:39:10;6.66;93.80
68648;SHT31;55632;51.962;16.116;2023-12-20T02:44:10;6.65;93.82
68648;SHT31;55632;51.962;16.116;2023-12-20T02:49:11;6.65;93.86
68648;SHT31;55632;51.962;16.116;2023-12-20T02:54:12;6.66;93.86
68648;SHT31;55632;51.962;16.116;2023-12-20T02:59:13;6.67;93.81
68648;SHT31;55632;51.962;16.116;2023-12-20T03:04:14;6.62;93.77
68648;SHT31;55632;51.962;16.116;2023-12-20T03:09:14;6.62;93.75
68648;SHT31;55632;51.962;16.116;2023-12-20T03:14:15;6.59;93.68
68648;SHT31;55632;51.962;16.116;2023-12-20T03:19:17;6.57;93.74
68648;SHT31;55632;51.962;16.116;2023-12-20T03:24:18;6.57;93.78
68648;SHT31;55632;51.962;16.116;2023-12-20T03:29:18;6.56;93.80
68648;SHT31;55632;51.962;16.116;2023-12-20T03:34:19;6.54;93.84
68648;SHT31;55632;51.962;16.116;2023-12-20T03:39:20;6.54;93.88
68648;SHT31;55632;51.962;16.116;2023-12-20T03:44:21;6.56;93.85
68648;SHT31;55632;51.962;16.116;2023-12-20T03:49:21;6.54;93.93
68648;SHT31;55632;51.962;16.116;2023-12-20T03:54:22;6.53;93.93
68648;SHT31;55632;51.962;16.116;2023-12-20T03:59:23;6.52;93.94
68648;SHT31;55632;51.962;16.116;2023-12-20T04:04:24;6.54;93.94
68648;SHT31;55632;51.962;16.116;2023-12-20T04:09:24;6.49;93.90
68648;SHT31;55632;51.962;16.116;2023-12-20T04:14:25;6.50;93.93
68648;SHT31;55632;51.962;16.116;2023-12-20T04:19:26;6.49;93.98
68648;SHT31;55632;51.962;16.116;2023-12-20T04:24:27;6.49;94.03
68648;SHT31;55632;51.962;16.116;2023-12-20T04:29:27;6.52;94.02
68648;SHT31;55632;51.962;16.116;2023-12-20T04:34:28;6.52;94.07
68648;SHT31;55632;51.962;16.116;2023-12-20T04:39:29;6.53;94.04
68648;SHT31;55632;51.962;16.116;2023-12-20T04:44:30;6.50;94.02
68648;SHT31;55632;51.962;16.116;2023-12-20T04:49:31;6.48;93.99
68648;SHT31;55632;51.962;16.116;2023-12-20T04:54:31;6.48;93.99
68648;SHT31;55632;51.962;16.116;2023-12-20T04:59:32;6.48;94.00
68648;SHT31;55632;51.962;16.116;2023-12-20T05:04:33;6.45;94.00
68648;SHT31;55632;51.962;16.116;2023-12-20T05:09:33;6.43;94.07
68648;SHT31;55632;51.962;16.116;2023-12-20T05:14:34;6.45;94.09
68648;SHT31;55632;51.962;16.116;2023-12-20T05:19:35;6.43;94.09
68648;SHT31;55632;51.962;16.116;2023-12-20T05:24:35;6.43;94.14
68648;SHT31;55632;51.962;16.116;2023-12-20T05:29:37;6.43;94.17
68648;SHT31;55632;51.962;16.116;2023-12-20T05:34:37;6.45;94.18
68648;SHT31;55632;51.962;16.116;2023-12-20T05:39:38;6.41;94.19
68648;SHT31;55632;51.962;16.116;2023-12-20T05:44:39;6.43;94.23
68648;SHT31;55632;51.962;16.116;2023-12-20T05:49:40;6.41;94.24
68648;SHT31;55632;51.962;16.116;2023-12-20T05:54:40;6.39;94.30
68648;SHT31;55632;51.962;16.116;2023-12-20T05:59:41;6.38;94.30
68648;SHT31;55632;51.962;16.116;2023-12-20T06:04:42;6.39;94.40
68648;SHT31;55632;51.962;16.116;2023-12-20T06:09:44;6.36;94.44
68648;SHT31;55632;51.962;16.116;2023-12-20T06:14:45;6.42;94.49
68648;SHT31;55632;51.962;16.116;2023-12-20T06:19:46;6.39;94.46
68648;SHT31;55632;51.962;16.116;2023-12-20T06:24:48;6.39;94.48
68648;SHT31;55632;51.962;16.116;2023-12-20T06:29:49;6.41;94.45
68648;SHT31;55632;51.962;16.116;2023-12-20T06:34:50;6.38;94.43
68648;SHT31;55632;51.962;16.116;2023-12-20T06:39:50;6.39;94.40
68648;SHT31;55632;51.962;16.116;2023-12-20T06:44:51;6.38;94.43
68648;SHT31;55632;51.962;16.116;2023-12-20T06:49:52;6.35;94.43
68648;SHT31;55632;51.962;16.116;2023-12-20T06:54:53;6.38;94.42
68648;SHT31;55632;51.962;16.116;2023-12-20T06:59:53;6.35;94.34
68648;SHT31;55632;51.962;16.116;2023-12-20T07:04:54;6.35;94.37
68648;SHT31;55632;51.962;16.116;2023-12-20T07:09:55;6.29;94.36
68648;SHT31;55632;51.962;16.116;2023-12-20T07:14:56;6.32;94.29
68648;SHT31;55632;51.962;16.116;2023-12-20T07:19:57;6.29;94.27
68648;SHT31;55632;51.962;16.116;2023-12-20T07:24:59;6.28;94.22
68648;SHT31;55632;51.962;16.116;2023-12-20T07:29:59;6.28;94.29
68648;SHT31;55632;51.962;16.116;2023-12-20T07:35:00;6.28;94.28
68648;SHT31;55632;51.962;16.116;2023-12-20T07:40:01;6.28;94.25
68648;SHT31;55632;51.962;16.116;2023-12-20T07:45:04;6.29;94.26
68648;SHT31;55632;51.962;16.116;2023-12-20T07:50:05;6.31;94.23
68648;SHT31;55632;51.962;16.116;2023-12-20T07:55:06;6.35;94.29
68648;SHT31;55632;51.962;16.116;2023-12-20T08:00:08;6.34;94.26
68648;SHT31;55632;51.962;16.116;2023-12-20T08:05:09;6.32;94.17
68648;SHT31;55632;51.962;16.116;2023-12-20T08:10:10;6.32;94.14
68648;SHT31;55632;51.962;16.116;2023-12-20T08:15:11;6.31;94.05
68648;SHT31;55632;51.962;16.116;2023-12-20T08:20:12;6.25;94.02
68648;SHT31;55632;51.962;16.116;2023-12-20T08:25:13;6.24;93.99
68648;SHT31;55632;51.962;16.116;2023-12-20T08:30:16;6.22;94.04
68648;SHT31;55632;51.962;16.116;2023-12-20T08:35:21;6.22;94.04
68648;SHT31;55632;51.962;16.116;2023-12-20T08:40:22;6.20;94.07
68648;SHT31;55632;51.962;16.116;2023-12-20T08:45:22;6.22;93.96
68648;SHT31;55632;51.962;16.116;2023-12-20T08:50:23;6.18;93.82
68648;SHT31;55632;51.962;16.116;2023-12-20T08:55:25;6.21;93.75
68648;SHT31;55632;51.962;16.116;2023-12-20T09:00:27;6.25;93.81
68648;SHT31;55632;51.962;16.116;2023-12-20T09:05:28;6.31;93.54
68648;SHT31;55632;51.962;16.116;2023-12-20T09:10:29;6.34;93.59
68648;SHT31;55632;51.962;16.116;2023-12-20T09:15:30;6.39;93.48
68648;SHT31;55632;51.962;16.116;2023-12-20T09:20:30;6.45;93.41
68648;SHT31;55632;51.962;16.116;2023-12-20T09:25:31;6.56;93.44
68648;SHT31;55632;51.962;16.116;2023-12-20T09:30:32;6.69;93.22
68648;SHT31;55632;51.962;16.116;2023-12-20T09:35:33;6.70;92.61
68648;SHT31;55632;51.962;16.116;2023-12-20T09:40:34;6.69;92.51
68648;SHT31;55632;51.962;16.116;2023-12-20T09:45:37;6.66;92.23
68648;SHT31;55632;51.962;16.116;2023-12-20T09:50:41;6.59;91.94
68648;SHT31;55632;51.962;16.116;2023-12-20T09:55:42;6.65;91.76
68648;SHT31;55632;51.962;16.116;2023-12-20T10:00:43;6.67;91.56
68648;SHT31;55632;51.962;16.116;2023-12-20T10:05:44;6.69;91.57
68648;SHT31;55632;51.962;16.116;2023-12-20T10:10:45;6.66;91.40
68648;SHT31;55632;51.962;16.116;2023-12-20T10:15:46;6.67;91.22
68648;SHT31;55632;51.962;16.116;2023-12-20T10:20:47;6.63;90.71
68648;SHT31;55632;51.962;16.116;2023-12-20T10:25:57;6.62;90.70
68648;SHT31;55632;51.962;16.116;2023-12-20T10:30:58;6.60;90.64
68648;SHT31;55632;51.962;16.116;2023-12-20T10:35:59;6.59;90.53
68648;SHT31;55632;51.962;16.116;2023-12-20T10:41:01;6.69;90.60
68648;SHT31;55632;51.962;16.116;2023-12-20T10:46:03;6.79;90.48
68648;SHT31;55632;51.962;16.116;2023-12-20T10:51:06;6.79;89.58
68648;SHT31;55632;51.962;16.116;2023-12-20T10:56:08;6.77;89.25
68648;SHT31;55632;51.962;16.116;2023-12-20T11:01:13;6.72;89.47
68648;SHT31;55632;51.962;16.116;2023-12-20T11:06:40;6.70;89.13
68648;SHT31;55632;51.962;16.116;2023-12-20T11:11:52;6.69;89.25
68648;SHT31;55632;51.962;16.116;2023-12-20T11:17:17;6.63;89.11
68648;SHT31;55632;51.962;16.116;2023-12-20T11:22:21;6.60;89.27
68648;SHT31;55632;51.962;16.116;2023-12-20T11:27:23;6.65;89.16
68648;SHT31;55632;51.962;16.116;2023-12-20T11:37:35;6.67;88.82
68648;SHT31;55632;51.962;16.116;2023-12-20T11:42:43;6.72;88.85
68648;SHT31;55632;51.962;16.116;2023-12-20T11:47:46;6.69;88.86
68648;SHT31;55632;51.962;16.116;2023-12-20T11:52:48;6.70;88.81
68648;SHT31;55632;51.962;16.116;2023-12-20T11:57:52;6.70;88.65
68648;SHT31;55632;51.962;16.116;2023-12-20T12:03:00;6.69;88.56
68648;SHT31;55632;51.962;16.116;2023-12-20T12:08:03;6.69;88.52
68648;SHT31;55632;51.962;16.116;2023-12-20T12:13:05;6.73;88.43
68648;SHT31;55632;51.962;16.116;2023-12-20T12:18:07;6.76;88.43
68648;SHT31;55632;51.962;16.116;2023-12-20T12:23:08;6.80;88.20
68648;SHT31;55632;51.962;16.116;2023-12-20T12:28:09;6.88;88.14
68648;SHT31;55632;51.962;16.116;2023-12-20T12:33:11;6.90;87.84
68648;SHT31;55632;51.962;16.116;2023-12-20T12:38:12;6.90;87.61
68648;SHT31;55632;51.962;16.116;2023-12-20T12:43:13;6.91;87.49
68648;SHT31;55632;51.962;16.116;2023-12-20T12:48:14;6.86;87.31
68648;SHT31;55632;51.962;16.116;2023-12-20T12:53:15;6.84;87.33
68648;SHT31;55632;51.962;16.116;2023-12-20T12:58:15;6.83;87.24
68648;SHT31;55632;51.962;16.116;2023-12-20T13:03:16;6.81;86.96
68648;SHT31;55632;51.962;16.116;2023-12-20T13:08:17;6.84;87.06
68648;SHT31;55632;51.962;16.116;2023-12-20T13:13:18;6.84;86.98
68648;SHT31;55632;51.962;16.116;2023-12-20T13:18:19;6.86;86.76
68648;SHT31;55632;51.962;16.116;2023-12-20T13:23:19;6.86;86.47
68648;SHT31;55632;51.962;16.116;2023-12-20T13:28:20;6.86;86.48
68648;SHT31;55632;51.962;16.116;2023-12-20T13:33:21;6.86;86.31
68648;SHT31;55632;51.962;16.116;2023-12-20T13:38:22;6.87;86.08
68648;SHT31;55632;51.962;16.116;2023-12-20T13:43:23;6.84;85.98
68648;SHT31;55632;51.962;16.116;2023-12-20T13:48:25;6.84;85.72
68648;SHT31;55632;51.962;16.116;2023-12-20T13:53:25;6.83;85.45
68648;SHT31;55632;51.962;16.116;2023-12-20T13:58:26;6.77;85.21
68648;SHT31;55632;51.962;16.116;2023-12-20T14:03:27;6.73;85.02
68648;SHT31;55632;51.962;16.116;2023-12-20T14:08:28;6.72;84.83
68648;SHT31;55632;51.962;16.116;2023-12-20T14:13:28;6.67;84.45
68648;SHT31;55632;51.962;16.116;2023-12-20T14:18:29;6.69;84.49
68648;SHT31;55632;51.962;16.116;2023-12-20T14:23:31;6.67;84.48
68648;SHT31;55632;51.962;16.116;2023-12-20T14:28:31;6.69;84.36
68648;SHT31;55632;51.962;16.116;2023-12-20T14:33:32;6.67;84.18
68648;SHT31;55632;51.962;16.116;2023-12-20T14:38:34;6.65;84.25
68648;SHT31;55632;51.962;16.116;2023-12-20T14:43:39;6.60;83.85
68648;SHT31;55632;51.962;16.116;2023-12-20T14:48:42;6.62;83.55
68648;SHT31;55632;51.962;16.116;2023-12-20T14:53:43;6.59;83.30
68648;SHT31;55632;51.962;16.116;2023-12-20T14:58:44;6.63;82.60
68648;SHT31;55632;51.962;16.116;2023-12-20T15:03:45;6.60;82.67
68648;SHT31;55632;51.962;16.116;2023-12-20T15:08:46;6.60;82.84
68648;SHT31;55632;51.962;16.116;2023-12-20T15:13:46;6.62;82.86
68648;SHT31;55632;51.962;16.116;2023-12-20T15:18:54;6.59;82.78
68648;SHT31;55632;51.962;16.116;2023-12-20T15:23:55;6.62;82.67
68648;SHT31;55632;51.962;16.116;2023-12-20T15:29:05;6.63;82.94
68648;SHT31;55632;51.962;16.116;2023-12-20T15:34:07;6.59;83.20
68648;SHT31;55632;51.962;16.116;2023-12-20T15:39:07;6.60;83.41
68648;SHT31;55632;51.962;16.116;2023-12-20T15:44:09;6.53;83.80
68648;SHT31;55632;51.962;16.116;2023-12-20T15:49:10;6.49;84.15
68648;SHT31;55632;51.962;16.116;2023-12-20T15:54:15;6.43;84.60
68648;SHT31;55632;51.962;16.116;2023-12-20T15:59:19;6.41;84.90
68648;SHT31;55632;51.962;16.116;2023-12-20T16:04:20;6.35;85.19
68648;SHT31;55632;51.962;16.116;2023-12-20T16:09:22;6.34;85.34
68648;SHT31;55632;51.962;16.116;2023-12-20T16:14:23;6.32;85.44
68648;SHT31;55632;51.962;16.116;2023-12-20T16:19:26;6.35;85.49
68648;SHT31;55632;51.962;16.116;2023-12-20T16:24:30;6.36;85.49
68648;SHT31;55632;51.962;16.116;2023-12-20T16:29:33;6.34;85.70
68648;SHT31;55632;51.962;16.116;2023-12-20T16:34:37;6.26;85.80
68648;SHT31;55632;51.962;16.116;2023-12-20T16:39:37;6.08;86.14
68648;SHT31;55632;51.962;16.116;2023-12-20T16:44:38;5.97;86.32
68648;SHT31;55632;51.962;16.116;2023-12-20T16:49:39;5.83;86.53
68648;SHT31;55632;51.962;16.116;2023-12-20T16:54:41;5.73;86.73
68648;SHT31;55632;51.962;16.116;2023-12-20T16:59:42;5.73;86.89
68648;SHT31;55632;51.962;16.116;2023-12-20T17:04:44;5.74;86.84
68648;SHT31;55632;51.962;16.116;2023-12-20T17:09:44;5.67;86.77
68648;SHT31;55632;51.962;16.116;2023-12-20T17:14:47;5.66;86.50
68648;SHT31;55632;51.962;16.116;2023-12-20T17:19:47;5.58;86.37
68648;SHT31;55632;51.962;16.116;2023-12-20T17:24:48;5.56;86.07
68648;SHT31;55632;51.962;16.116;2023-12-20T17:29:49;5.48;86.10
68648;SHT31;55632;51.962;16.116;2023-12-20T17:34:50;5.42;86.30
68648;SHT31;55632;51.962;16.116;2023-12-20T17:39:51;5.42;86.32
68648;SHT31;55632;51.962;16.116;2023-12-20T17:44:52;5.34;86.22
68648;SHT31;55632;51.962;16.116;2023-12-20T17:49:52;5.31;86.08
68648;SHT31;55632;51.962;16.116;2023-12-20T17:54:53;5.28;85.74
68648;SHT31;55632;51.962;16.116;2023-12-20T17:59:54;5.27;85.63
68648;SHT31;55632;51.962;16.116;2023-12-20T18:04:54;5.24;85.38
68648;SHT31;55632;51.962;16.116;2023-12-20T18:09:56;5.28;85.22
68648;SHT31;55632;51.962;16.116;2023-12-20T18:14:57;5.31;84.81
68648;SHT31;55632;51.962;16.116;2023-12-20T18:19:59;5.35;84.07
68648;SHT31;55632;51.962;16.116;2023-12-20T18:24:59;5.32;83.45
68648;SHT31;55632;51.962;16.116;2023-12-20T18:30:00;5.30;83.18
68648;SHT31;55632;51.962;16.116;2023-12-20T18:35:06;5.27;83.14
68648;SHT31;55632;51.962;16.116;2023-12-20T18:40:07;5.27;82.99
68648;SHT31;55632;51.962;16.116;2023-12-20T18:45:09;5.24;83.12
68648;SHT31;55632;51.962;16.116;2023-12-20T18:50:10;5.24;83.37
68648;SHT31;55632;51.962;16.116;2023-12-20T18:55:11;5.23;83.45
68648;SHT31;55632;51.962;16.116;2023-12-20T19:00:12;5.26;83.46
68648;SHT31;55632;51.962;16.116;2023-12-20T19:05:13;5.24;83.41
68648;SHT31;55632;51.962;16.116;2023-12-20T19:10:14;5.18;83.46
68648;SHT31;55632;51.962;16.116;2023-12-20T19:15:14;5.13;83.68
68648;SHT31;55632;51.962;16.116;2023-12-20T19:20:16;5.11;83.93
68648;SHT31;55632;51.962;16.116;2023-12-20T19:25:19;5.07;84.01
68648;SHT31;55632;51.962;16.116;2023-12-20T19:30:19;5.04;84.14
68648;SHT31;55632;51.962;16.116;2023-12-20T19:35:20;5.00;84.26
68648;SHT31;55632;51.962;16.116;2023-12-20T19:40:22;5.00;84.35
68648;SHT31;55632;51.962;16.116;2023-12-20T19:45:23;5.00;84.52
68648;SHT31;55632;51.962;16.116;2023-12-20T19:50:24;4.99;84.67
68648;SHT31;55632;51.962;16.116;2023-12-20T19:55:24;4.97;84.84
68648;SHT31;55632;51.962;16.116;2023-12-20T20:00:25;4.97;84.98
68648;SHT31;55632;51.962;16.116;2023-12-20T20:05:26;4.94;85.19
68648;SHT31;55632;51.962;16.116;2023-12-20T20:10:27;4.94;85.41
68648;SHT31;55632;51.962;16.116;2023-12-20T20:15:28;4.92;85.52
68648;SHT31;55632;51.962;16.116;2023-12-20T20:20:28;4.89;85.62
68648;SHT31;55632;51.962;16.116;2023-12-20T20:25:29;4.83;85.80
68648;SHT31;55632;51.962;16.116;2023-12-20T20:30:30;4.79;85.98
68648;SHT31;55632;51.962;16.116;2023-12-20T20:35:31;4.79;86.06
68648;SHT31;55632;51.962;16.116;2023-12-20T20:40:32;4.75;86.15
68648;SHT31;55632;51.962;16.116;2023-12-20T20:45:32;4.73;86.22
68648;SHT31;55632;51.962;16.116;2023-12-20T20:50:34;4.73;86.25
68648;SHT31;55632;51.962;16.116;2023-12-20T20:55:34;4.73;86.36
68648;SHT31;55632;51.962;16.116;2023-12-20T21:00:36;4.72;86.37
68648;SHT31;55632;51.962;16.116;2023-12-20T21:05:36;4.76;86.37
68648;SHT31;55632;51.962;16.116;2023-12-20T21:10:38;4.76;86.34
68648;SHT31;55632;51.962;16.116;2023-12-20T21:15:39;4.76;86.38
68648;SHT31;55632;51.962;16.116;2023-12-20T21:20:40;4.77;86.46
68648;SHT31;55632;51.962;16.116;2023-12-20T21:25:41;4.77;86.51
68648;SHT31;55632;51.962;16.116;2023-12-20T21:30:42;4.77;86.56
68648;SHT31;55632;51.962;16.116;2023-12-20T21:35:43;4.79;86.54
68648;SHT31;55632;51.962;16.116;2023-12-20T21:40:44;4.83;86.52
68648;SHT31;55632;51.962;16.116;2023-12-20T21:45:45;4.85;86.53
68648;SHT31;55632;51.962;16.116;2023-12-20T21:50:47;4.85;86.52
68648;SHT31;55632;51.962;16.116;2023-12-20T21:55:48;4.82;86.45
68648;SHT31;55632;51.962;16.116;2023-12-20T22:00:48;4.83;86.50
68648;SHT31;55632;51.962;16.116;2023-12-20T22:05:49;4.82;86.50
68648;SHT31;55632;51.962;16.116;2023-12-20T22:10:50;4.82;86.57
68648;SHT31;55632;51.962;16.116;2023-12-20T22:15:51;4.82;86.54
68648;SHT31;55632;51.962;16.116;2023-12-20T22:20:52;4.82;86.52
68648;SHT31;55632;51.962;16.116;2023-12-20T22:25:52;4.83;86.54
68648;SHT31;55632;51.962;16.116;2023-12-20T22:30:53;4.85;86.46
68648;SHT31;55632;51.962;16.116;2023-12-20T22:35:54;4.85;86.49
68648;SHT31;55632;51.962;16.116;2023-12-20T22:40:54;4.82;86.58
68648;SHT31;55632;51.962;16.116;2023-12-20T22:45:55;4.82;86.64
68648;SHT31;55632;51.962;16.116;2023-12-20T22:50:57;4.83;86.74
68648;SHT31;55632;51.962;16.116;2023-12-20T22:55:57;4.83;86.85
68648;SHT31;55632;51.962;16.116;2023-12-20T23:00:58;4.86;86.90
68648;SHT31;55632;51.962;16.116;2023-12-20T23:06:00;4.83;86.94
68648;SHT31;55632;51.962;16.116;2023-12-20T23:11:01;4.83;87.04
68648;SHT31;55632;51.962;16.116;2023-12-20T23:16:02;4.87;87.02
68648;SHT31;55632;51.962;16.116;2023-12-20T23:21:03;4.90;87.07
68648;SHT31;55632;51.962;16.116;2023-12-20T23:26:04;4.90;87.17
68648;SHT31;55632;51.962;16.116;2023-12-20T23:31:04;4.89;87.28
68648;SHT31;55632;51.962;16.116;2023-12-20T23:36:06;4.89;87.37
68648;SHT31;55632;51.962;16.116;2023-12-20T23:41:06;4.89;87.55
68648;SHT31;55632;51.962;16.116;2023-12-20T23:46:07;4.87;87.74
68648;SHT31;55632;51.962;16.116;2023-12-20T23:51:08;4.85;87.95
68648;SHT31;55632;51.962;16.116;2023-12-20T23:56:09;4.83;88.11
